Time;durP1;ratioP1;P1;durP2;ratioP2;P2;SDS_P1;SDS_P2;PMS_P1;PMS_P2;Temp;Humidity;BMP_temperature;BMP_pressure;BME280_temperature;BME280_humidity;BME280_pressure;Samples;Min_cycle;Max_cycle;Signal;HPM_P1;HPM_P2
2023/08/12 00:01:21;;;;;;;3.57;0.33;;;;;;;20.87;84.04;100652.53;4994630;28;20201;-79
2023/08/12 00:03:48;;;;;;;0.50;0.40;;;;;;;20.78;84.48;100644.47;4993804;28;20195;-80
2023/08/12 00:06:13;;;;;;;0.60;0.60;;;;;;;20.78;84.40;100647.25;4994723;28;20261;-80
2023/08/12 00:08:39;;;;;;;0.40;0.40;;;;;;;20.90;83.07;100652.59;4993306;28;20200;-78
2023/08/12 00:11:04;;;;;;;0.27;0.27;;;;;;;20.92;82.56;100644.66;4992567;28;20186;-79
2023/08/12 00:13:29;;;;;;;0.43;0.30;;;;;;;20.99;81.49;100644.78;4991206;28;20292;-78
2023/08/12 00:15:55;;;;;;;0.20;0.20;;;;;;;21.10;80.51;100644.88;4992089;28;20511;-78
2023/08/12 00:18:22;;;;;;;0.60;0.60;;;;;;;20.97;80.68;100635.19;4992295;28;20193;-78
2023/08/12 00:20:47;;;;;;;0.30;0.30;;;;;;;21.03;80.17;100648.38;4992170;28;20321;-80
2023/08/12 00:23:13;;;;;;;1.60;1.50;;;;;;;21.12;79.56;100652.84;4991067;28;20709;-79
2023/08/12 00:25:38;;;;;;;0.10;0.10;;;;;;;21.13;79.40;100638.59;4990782;28;20294;-78
2023/08/12 00:28:04;;;;;;;0.93;0.50;;;;;;;21.17;79.28;100644.19;4991019;28;20276;-78
2023/08/12 00:30:29;;;;;;;0.00;0.00;;;;;;;21.12;78.99;100637.00;4992490;28;20196;-78
2023/08/12 00:32:54;;;;;;;0.00;0.00;;;;;;;21.21;78.54;100643.06;4991083;28;20215;-79
2023/08/12 00:35:20;;;;;;;0.10;0.10;;;;;;;21.26;77.99;100641.94;4990245;28;20218;-78
2023/08/12 00:37:45;;;;;;;1.70;0.33;;;;;;;21.25;78.57;100635.56;4992339;28;20197;-79
2023/08/12 00:40:11;;;;;;;0.40;0.40;;;;;;;21.21;78.37;100637.50;4992337;28;20193;-78
2023/08/12 00:42:36;;;;;;;0.20;0.20;;;;;;;21.23;78.23;100640.69;4992418;28;20300;-78
2023/08/12 00:45:02;;;;;;;0.10;0.10;;;;;;;21.24;78.03;100633.94;4990688;28;20205;-78
2023/08/12 00:47:30;;;;;;;0.50;0.50;;;;;;;21.23;78.25;100634.34;4991397;28;20598;-78
2023/08/12 00:49:57;;;;;;;0.00;0.00;;;;;;;21.25;77.96;100630.00;5007262;28;20555;-78
2023/08/12 00:52:23;;;;;;;0.40;0.20;;;;;;;21.21;78.30;100634.72;5007016;28;20655;-79
2023/08/12 00:54:48;;;;;;;0.63;0.63;;;;;;;21.18;78.63;100632.69;4991491;28;20289;-78
2023/08/12 00:57:14;;;;;;;0.10;0.10;;;;;;;21.12;78.61;100627.84;4990662;28;20192;-79
2023/08/12 00:59:41;;;;;;;0.00;0.00;;;;;;;21.08;79.21;100622.25;4991817;28;20186;-78
2023/08/12 01:02:07;;;;;;;1.70;0.97;;;;;;;21.01;79.93;100619.38;4993048;28;20177;-79
2023/08/12 01:04:32;;;;;;;0.33;0.33;;;;;;;20.87;80.91;100616.44;4991457;28;20574;-78
2023/08/12 01:06:58;;;;;;;0.47;0.47;;;;;;;20.80;81.77;100617.91;4991853;28;20352;-79
2023/08/12 01:09:23;;;;;;;0.60;0.60;;;;;;;20.69;82.38;100614.22;4990397;28;20186;-78
2023/08/12 01:12:04;;;;;;;0.43;0.43;;;;;;;20.70;81.95;100613.03;4990765;28;20185;-78
2023/08/12 01:14:54;;;;;;;0.27;0.27;;;;;;;20.76;81.57;100613.50;4991305;28;20291;-78
2023/08/12 01:17:20;;;;;;;0.30;0.30;;;;;;;20.74;81.50;100611.09;4991719;28;20265;-78
2023/08/12 01:19:47;;;;;;;0.97;0.93;;;;;;;20.80;81.69;100609.59;4992904;28;20281;-78
2023/08/12 01:22:14;;;;;;;0.27;0.27;;;;;;;20.80;81.36;100609.59;4992223;28;20185;-78
2023/08/12 01:24:43;;;;;;;0.10;0.10;;;;;;;20.87;80.72;100602.53;4992245;28;20606;-79
2023/08/12 01:27:10;;;;;;;0.50;0.50;;;;;;;20.93;80.37;100601.81;4991551;28;20184;-79
2023/08/12 01:29:40;;;;;;;0.70;0.60;;;;;;;20.98;80.30;100604.28;4991600;28;20701;-78
2023/08/12 01:32:34;;;;;;;0.40;0.40;;;;;;;21.03;80.23;100601.16;4991625;28;20185;-78
2023/08/12 01:35:19;;;;;;;0.20;0.20;;;;;;;21.06;79.79;100599.59;4991199;28;20206;-78
2023/08/12 01:37:45;;;;;;;0.17;0.17;;;;;;;20.99;79.91;100592.00;4998287;28;20181;-79
2023/08/12 01:40:13;;;;;;;0.00;0.00;;;;;;;21.01;80.04;100586.06;4991649;28;20240;-81
2023/08/12 01:42:40;;;;;;;0.00;0.00;;;;;;;21.00;80.07;100590.00;4992548;28;20183;-80
2023/08/12 01:45:06;;;;;;;1.10;1.03;;;;;;;21.02;79.92;100588.44;4989807;28;20201;-78
2023/08/12 01:47:32;;;;;;;0.00;0.00;;;;;;;21.07;79.70;100567.84;4990562;28;20271;-79
2023/08/12 01:49:58;;;;;;;0.17;0.17;;;;;;;21.09;79.56;100566.28;4990700;28;20778;-80
2023/08/12 01:52:23;;;;;;;0.00;0.00;;;;;;;21.21;79.20;100581.13;4993411;28;20602;-80
2023/08/12 01:54:48;;;;;;;0.00;0.00;;;;;;;21.25;78.83;100568.88;4991376;28;20211;-79
2023/08/12 01:57:14;;;;;;;0.10;0.10;;;;;;;21.31;78.22;100575.72;4994703;28;20187;-79
2023/08/12 01:59:39;;;;;;;0.23;0.23;;;;;;;21.34;77.79;100572.16;5000328;28;20187;-80
2023/08/12 02:02:05;;;;;;;0.77;0.77;;;;;;;21.33;77.52;100573.34;4993330;28;20190;-79
2023/08/12 02:04:30;;;;;;;0.50;0.50;;;;;;;21.40;77.44;100569.81;4991219;28;20264;-78
2023/08/12 02:06:56;;;;;;;0.00;0.00;;;;;;;21.45;77.47;100572.28;4993607;28;20266;-80
2023/08/12 02:09:22;;;;;;;0.00;0.00;;;;;;;21.44;77.50;100562.34;4991518;28;20197;-80
2023/08/12 02:11:48;;;;;;;0.10;0.10;;;;;;;21.42;78.10;100563.91;4993302;28;20186;-81
2023/08/12 02:14:14;;;;;;;0.30;0.10;;;;;;;21.36;78.01;100566.22;4992486;28;20641;-80
2023/08/12 02:16:39;;;;;;;0.00;0.00;;;;;;;21.42;78.26;100563.91;4993061;28;20200;-79
2023/08/12 02:19:04;;;;;;;0.97;0.97;;;;;;;21.37;78.49;100560.28;4992758;28;20189;-79
2023/08/12 02:21:30;;;;;;;17.73;15.73;;;;;;;21.31;78.26;100550.69;4994087;28;20202;-79
2023/08/12 02:23:55;;;;;;;1.50;1.33;;;;;;;21.44;78.44;100559.56;4995385;28;20205;-79
2023/08/12 02:26:20;;;;;;;0.00;0.00;;;;;;;21.39;77.73;100546.78;4996073;28;20198;-79
2023/08/12 02:28:46;;;;;;;0.00;0.00;;;;;;;21.47;77.56;100544.88;4994919;28;20214;-79
2023/08/12 02:31:11;;;;;;;0.00;0.00;;;;;;;;;;4994657;28;20193;-78
2023/08/12 02:33:36;;;;;;;0.00;0.00;;;;;;;;;;4993026;28;20204;-78
2023/08/12 02:36:02;;;;;;;0.47;0.47;;;;;;;21.42;78.37;100533.34;4993821;28;20188;-78
2023/08/12 02:38:27;;;;;;;0.17;0.17;;;;;;;21.43;78.81;100544.06;4994561;28;20197;-79
2023/08/12 02:40:52;;;;;;;0.00;0.00;;;;;;;21.24;79.84;100525.56;4994440;28;20187;-78
2023/08/12 02:43:18;;;;;;;0.00;0.00;;;;;;;21.17;80.61;100525.50;4994594;28;20213;-78
2023/08/12 02:45:43;;;;;;;0.60;0.57;;;;;;;21.09;81.08;100530.16;4993903;28;20295;-80
2023/08/12 02:48:12;;;;;;;0.10;0.10;;;;;;;21.03;81.84;100536.47;4994202;28;20278;-78
2023/08/12 02:50:38;;;;;;;0.20;0.20;;;;;;;20.83;83.35;100548.91;4993951;28;20189;-80
2023/08/12 02:53:05;;;;;;;0.07;0.07;;;;;;;20.62;84.71;100544.69;4994093;28;20185;-79
2023/08/12 02:55:34;;;;;;;0.20;0.20;;;;;;;20.75;83.33;100551.63;4993472;28;20232;-80
2023/08/12 02:58:00;;;;;;;0.17;0.17;;;;;;;20.76;82.88;100552.41;4992650;28;20193;-78
2023/08/12 03:00:25;;;;;;;1.20;1.10;;;;;;;20.71;82.90;100575.75;4992441;28;20185;-78
2023/08/12 03:02:51;;;;;;;1.17;1.10;;;;;;;20.38;84.16;100570.09;4994074;28;20264;-78
2023/08/12 03:05:16;;;;;;;0.73;0.73;;;;;;;20.17;86.27;100570.59;4991866;28;20217;-78
2023/08/12 03:07:42;;;;;;;3.80;1.77;;;;;;;20.09;88.00;100588.28;4992564;28;20676;-79
2023/08/12 03:10:07;;;;;;;7.43;1.87;;;;;;;20.01;88.89;100581.03;4992321;28;20185;-78
2023/08/12 03:12:33;;;;;;;1.40;1.30;;;;;;;20.03;88.78;100579.50;4992524;28;20197;-78
2023/08/12 03:14:58;;;;;;;1.43;1.33;;;;;;;20.08;88.56;100579.16;4993053;28;20209;-79
2023/08/12 03:17:23;;;;;;;0.17;0.17;;;;;;;20.10;88.39;100574.03;4992184;28;20287;-78
2023/08/12 03:19:49;;;;;;;0.27;0.27;;;;;;;20.22;87.60;100578.59;4993554;28;20204;-79
2023/08/12 03:22:15;;;;;;;0.00;0.00;;;;;;;20.26;87.13;100573.13;4993575;28;20267;-79
2023/08/12 03:24:40;;;;;;;0.23;0.23;;;;;;;20.22;87.30;100567.50;4993275;28;20610;-78
2023/08/12 03:27:05;;;;;;;0.90;0.90;;;;;;;20.16;88.23;100558.69;4993367;28;20193;-78
2023/08/12 03:29:31;;;;;;;0.93;0.93;;;;;;;20.10;88.47;100570.47;4992368;28;20295;-80
2023/08/12 03:31:56;;;;;;;2.00;1.83;;;;;;;20.02;89.23;100593.75;4993687;28;20181;-78
2023/08/12 03:34:22;;;;;;;3.90;1.20;;;;;;;20.18;87.38;100580.53;4992623;28;20587;-78
2023/08/12 03:36:48;;;;;;;1.07;1.00;;;;;;;20.44;84.90;100588.88;4993476;28;20189;-78
2023/08/12 03:39:14;;;;;;;0.70;0.70;;;;;;;20.65;83.17;100585.59;4993351;28;20258;-79
2023/08/12 03:41:39;;;;;;;0.10;0.10;;;;;;;20.73;82.50;100580.94;4993951;28;20598;-80
2023/08/12 03:44:05;;;;;;;0.00;0.00;;;;;;;20.78;81.65;100573.06;4994322;28;20209;-78
2023/08/12 03:46:31;;;;;;;0.37;0.37;;;;;;;20.90;80.67;100580.34;4993540;28;20216;-78
2023/08/12 03:48:56;;;;;;;0.00;0.00;;;;;;;21.01;80.15;100588.84;4991899;28;20182;-77
2023/08/12 03:51:21;;;;;;;1.40;0.87;;;;;;;21.07;79.38;100596.44;4993145;28;20204;-81
2023/08/12 03:53:47;;;;;;;0.20;0.20;;;;;;;21.21;78.10;100586.66;4992890;28;20272;-78
2023/08/12 03:56:15;;;;;;;0.23;0.23;;;;;;;21.33;77.71;100592.00;4991437;28;20327;-78
2023/08/12 03:58:40;;;;;;;0.00;0.00;;;;;;;21.14;79.28;100587.41;4993107;28;20183;-78
2023/08/12 04:01:06;;;;;;;0.30;0.30;;;;;;;20.99;81.47;100588.41;4994574;28;20661;-78
2023/08/12 04:03:31;;;;;;;0.70;0.70;;;;;;;20.73;83.33;100581.75;4994563;28;20188;-78
2023/08/12 04:05:57;;;;;;;0.23;0.23;;;;;;;20.49;85.04;100580.22;4992166;28;20716;-78
2023/08/12 04:08:23;;;;;;;3.07;1.43;;;;;;;20.30;86.29;100588.63;4992699;28;20271;-78
2023/08/12 04:10:50;;;;;;;0.93;0.93;;;;;;;20.14;87.78;100593.53;4991516;28;20193;-78
2023/08/12 04:13:15;;;;;;;0.77;0.77;;;;;;;20.09;88.01;100597.41;4992498;28;20186;-78
2023/08/12 04:15:41;;;;;;;0.10;0.10;;;;;;;20.16;87.89;100596.75;5000074;28;20585;-79
2023/08/12 04:18:07;;;;;;;4.43;0.93;;;;;;;20.22;87.32;100595.25;4993574;28;20193;-78
2023/08/12 04:20:32;;;;;;;1.70;1.60;;;;;;;20.26;86.91;100598.09;4994027;28;20216;-78
2023/08/12 04:22:57;;;;;;;0.70;0.70;;;;;;;20.33;86.37;100603.72;4993992;28;20181;-79
2023/08/12 04:25:22;;;;;;;1.10;1.10;;;;;;;20.33;86.34;100604.53;4993913;28;20200;-78
2023/08/12 04:27:49;;;;;;;0.37;0.37;;;;;;;20.34;86.72;100605.34;4994519;28;20189;-78
2023/08/12 04:30:16;;;;;;;0.80;0.80;;;;;;;20.39;87.13;100621.66;4994031;28;20180;-79
2023/08/12 04:32:41;;;;;;;1.50;0.70;;;;;;;20.37;87.89;100619.25;4993568;28;20668;-79
2023/08/12 04:35:07;;;;;;;0.97;0.97;;;;;;;20.36;87.57;100616.84;4993568;28;20211;-78
2023/08/12 04:37:32;;;;;;;1.33;1.20;;;;;;;20.34;87.53;100620.00;4992860;28;20199;-78
2023/08/12 04:39:58;;;;;;;0.10;0.10;;;;;;;20.39;88.03;100621.66;4994079;28;20657;-79
2023/08/12 04:42:24;;;;;;;1.10;1.10;;;;;;;20.35;88.34;100624.38;4993878;28;20265;-80
2023/08/12 04:44:49;;;;;;;1.40;1.30;;;;;;;20.32;89.05;100621.56;4993222;28;20684;-79
2023/08/12 04:47:15;;;;;;;0.50;0.50;;;;;;;20.23;90.68;100621.81;4993172;28;20216;-78
2023/08/12 04:49:40;;;;;;;1.33;0.93;;;;;;;20.10;91.96;100623.97;4994702;28;20551;-80
2023/08/12 04:52:06;;;;;;;0.30;0.30;;;;;;;19.98;94.08;100628.94;4991184;28;20558;-79
2023/08/12 04:54:32;;;;;;;1.00;1.00;;;;;;;19.87;96.16;100625.97;5006840;28;20208;-79
2023/08/12 04:56:57;;;;;;;1.33;1.33;;;;;;;19.69;99.08;100633.19;4992906;28;20653;-78
2023/08/12 04:59:23;;;;;;;0.50;0.50;;;;;;;19.55;100.00;100633.72;4992420;28;20723;-79
2023/08/12 05:01:48;;;;;;;0.90;0.90;;;;;;;19.46;100.00;100633.91;4992268;28;20181;-79
2023/08/12 05:04:13;;;;;;;1.47;1.10;;;;;;;19.48;100.00;100639.09;4990181;28;20201;-79
2023/08/12 05:06:40;;;;;;;1.83;1.73;;;;;;;19.40;100.00;100631.81;4990638;28;20181;-80
2023/08/12 05:09:05;;;;;;;1.13;1.03;;;;;;;19.35;100.00;100640.41;4993056;28;20176;-80
2023/08/12 05:11:31;;;;;;;1.00;1.00;;;;;;;19.33;100.00;100633.28;4992154;28;20679;-79
2023/08/12 05:13:56;;;;;;;0.20;0.20;;;;;;;19.30;100.00;100639.56;4991288;28;20197;-79
2023/08/12 05:16:22;;;;;;;0.30;0.30;;;;;;;19.29;100.00;100643.50;4990357;28;20287;-79
2023/08/12 05:18:47;;;;;;;1.23;1.17;;;;;;;19.23;100.00;100641.38;4992195;28;20200;-80
2023/08/12 05:21:12;;;;;;;0.30;0.30;;;;;;;19.20;100.00;100640.13;4990772;28;20185;-79
2023/08/12 05:23:38;;;;;;;1.50;1.40;;;;;;;19.27;100.00;100645.81;4992926;28;20595;-80
2023/08/12 05:26:03;;;;;;;0.40;0.40;;;;;;;19.25;100.00;100650.13;4991223;28;20180;-79
2023/08/12 05:28:28;;;;;;;0.77;0.77;;;;;;;19.27;100.00;100656.09;4992102;28;20251;-79
2023/08/12 05:30:55;;;;;;;5.83;1.60;;;;;;;19.24;100.00;100651.28;4991964;28;20181;-80
2023/08/12 05:33:21;;;;;;;1.17;0.67;;;;;;;19.27;100.00;100643.06;4993207;28;20177;-80
2023/08/12 05:35:50;;;;;;;0.83;0.83;;;;;;;19.29;100.00;100648.22;4993338;28;20679;-79
2023/08/12 05:38:15;;;;;;;1.27;1.00;;;;;;;19.24;100.00;100643.78;4993083;28;20184;-79
2023/08/12 05:40:41;;;;;;;3.00;0.30;;;;;;;19.30;100.00;100645.09;4992433;28;20181;-79
2023/08/12 05:43:07;;;;;;;0.23;0.23;;;;;;;19.41;100.00;100638.97;4992099;28;20177;-79
2023/08/12 05:45:32;;;;;;;1.27;0.40;;;;;;;19.46;100.00;100639.47;4990196;28;20201;-81
2023/08/12 05:47:57;;;;;;;0.57;0.57;;;;;;;19.49;100.00;100640.69;4989832;28;20177;-79
2023/08/12 05:50:23;;;;;;;0.30;0.30;;;;;;;19.51;100.00;100639.16;4990873;28;20188;-79
2023/08/12 05:52:48;;;;;;;0.93;0.93;;;;;;;19.46;100.00;100624.81;4990946;28;20177;-78
2023/08/12 05:55:13;;;;;;;0.90;0.90;;;;;;;19.49;100.00;100622.09;4985797;28;20644;-79
2023/08/12 05:57:39;;;;;;;0.40;0.40;;;;;;;19.63;100.00;100634.66;4992406;28;20220;-79
2023/08/12 06:00:05;;;;;;;0.10;0.07;;;;;;;19.78;100.00;100622.66;4993061;28;20231;-79
2023/08/12 06:02:31;;;;;;;0.00;0.00;;;;;;;19.84;100.00;100621.97;4993635;28;20190;-79
2023/08/12 06:04:56;;;;;;;0.63;0.63;;;;;;;19.90;100.00;100622.47;4993770;28;20204;-79
2023/08/12 06:07:23;;;;;;;0.57;0.57;;;;;;;19.82;100.00;100623.53;4994757;28;20276;-80
2023/08/12 06:09:48;;;;;;;0.87;0.87;;;;;;;19.80;100.00;100621.09;4994360;28;20188;-79
2023/08/12 06:12:13;;;;;;;0.87;0.87;;;;;;;19.71;100.00;100609.47;4994972;28;20560;-79
2023/08/12 06:14:39;;;;;;;0.50;0.50;;;;;;;19.70;100.00;100618.16;5008991;28;20201;-79
2023/08/12 06:17:04;;;;;;;0.33;0.33;;;;;;;19.84;100.00;100621.19;4993575;28;20200;-79
2023/08/12 06:19:30;;;;;;;0.40;0.40;;;;;;;19.81;100.00;100627.44;4994882;28;20197;-79
2023/08/12 06:21:55;;;;;;;0.90;0.90;;;;;;;19.78;100.00;100628.19;4994799;28;20177;-79
2023/08/12 06:24:20;;;;;;;0.27;0.27;;;;;;;19.80;100.00;100623.06;4993576;28;20279;-80
2023/08/12 06:26:46;;;;;;;0.00;0.00;;;;;;;19.88;100.00;100620.06;4994658;28;20184;-79
2023/08/12 06:29:11;;;;;;;0.20;0.20;;;;;;;19.90;100.00;100619.69;4994440;28;20642;-79
2023/08/12 06:31:36;;;;;;;0.10;0.10;;;;;;;19.87;100.00;100617.66;4994373;28;20533;-81
2023/08/12 06:34:02;;;;;;;0.63;0.63;;;;;;;19.91;100.00;100615.75;4993981;28;20283;-79
2023/08/12 06:36:27;;;;;;;0.40;0.40;;;;;;;19.91;100.00;100612.97;4994337;28;20212;-79
2023/08/12 06:38:52;;;;;;;0.73;0.73;;;;;;;19.97;100.00;100617.06;4994463;28;20555;-79
2023/08/12 06:41:18;;;;;;;0.00;0.00;;;;;;;20.11;100.00;100622.84;4994307;28;20185;-79
2023/08/12 06:43:43;;;;;;;0.00;0.00;;;;;;;20.25;100.00;100616.69;4993103;28;20211;-79
2023/08/12 06:46:08;;;;;;;0.00;0.00;;;;;;;20.40;100.00;100615.75;4992225;28;20193;-80
2023/08/12 06:48:34;;;;;;;0.00;0.00;;;;;;;20.44;100.00;100624.16;4993117;28;20223;-79
2023/08/12 06:50:59;;;;;;;0.00;0.00;;;;;;;20.47;100.00;100624.22;4994155;28;20200;-80
2023/08/12 06:53:27;;;;;;;0.00;0.00;;;;;;;20.54;100.00;100628.25;5009124;28;20185;-79
2023/08/12 06:55:53;;;;;;;0.00;0.00;;;;;;;20.65;100.00;100621.69;4991947;28;20306;-80
2023/08/12 06:58:18;;;;;;;0.00;0.00;;;;;;;20.80;100.00;100626.25;4993030;28;20228;-79
2023/08/12 07:00:43;;;;;;;0.00;0.00;;;;;;;20.99;100.00;100627.31;4992523;28;20193;-79
2023/08/12 07:03:09;;;;;;;0.50;0.33;;;;;;;21.02;100.00;100618.22;4993780;28;20186;-79
2023/08/12 07:05:34;;;;;;;0.20;0.20;;;;;;;20.83;100.00;100599.72;4992100;28;20193;-79
2023/08/12 07:07:59;;;;;;;0.33;0.33;;;;;;;20.95;100.00;100602.25;4992818;28;20189;-79
2023/08/12 07:10:25;;;;;;;0.07;0.07;;;;;;;21.11;100.00;100604.81;4994084;28;20181;-79
2023/08/12 07:12:50;;;;;;;0.83;0.83;;;;;;;21.15;100.00;100604.88;4994316;28;20710;-79
2023/08/12 07:15:15;;;;;;;2.07;1.20;;;;;;;21.29;100.00;100616.19;4992909;28;20210;-80
2023/08/12 07:17:41;;;;;;;0.00;0.00;;;;;;;21.34;100.00;100608.28;4992614;28;20279;-79
2023/08/12 07:20:07;;;;;;;0.00;0.00;;;;;;;21.43;100.00;100609.97;4993535;28;20231;-80
2023/08/12 07:22:32;;;;;;;0.00;0.00;;;;;;;21.52;100.00;100610.47;4994031;28;20173;-80
2023/08/12 07:24:59;;;;;;;11.63;10.63;;;;;;;21.50;100.00;100599.72;4992013;28;20197;-81
2023/08/12 07:27:26;;;;;;;2.67;2.57;;;;;;;21.50;100.00;100587.81;4991226;28;20193;-79
2023/08/12 07:29:51;;;;;;;1.83;1.73;;;;;;;21.38;99.47;100586.88;4990309;28;20185;-79
2023/08/12 07:32:17;;;;;;;0.73;0.70;;;;;;;21.21;99.00;100586.66;4992656;28;20186;-80
2023/08/12 07:34:42;;;;;;;0.70;0.70;;;;;;;21.25;99.86;100593.09;4989579;28;20209;-80
2023/08/12 07:37:08;;;;;;;0.00;0.00;;;;;;;21.28;100.00;100598.72;4991676;28;20186;-79
2023/08/12 07:39:33;;;;;;;0.00;0.00;;;;;;;21.26;100.00;100589.13;4993688;28;20313;-80
2023/08/12 07:41:58;;;;;;;0.00;0.00;;;;;;;21.34;100.00;100602.72;5008418;28;20276;-79
2023/08/12 07:44:24;;;;;;;0.00;0.00;;;;;;;21.39;100.00;100601.59;4992864;28;20211;-79
2023/08/12 07:46:49;;;;;;;0.00;0.00;;;;;;;21.46;100.00;100595.31;4990990;28;20268;-80
2023/08/12 07:49:16;;;;;;;0.00;0.00;;;;;;;21.49;100.00;100584.22;4992727;28;20188;-80
2023/08/12 07:51:41;;;;;;;0.00;0.00;;;;;;;21.46;100.00;100590.56;4990342;28;20242;-79
2023/08/12 07:54:07;;;;;;;0.00;0.00;;;;;;;21.47;100.00;100594.94;4992927;28;20209;-80
2023/08/12 07:56:32;;;;;;;1.13;1.13;;;;;;;21.36;100.00;100582.91;4993225;28;20674;-79
2023/08/12 07:58:57;;;;;;;0.37;0.37;;;;;;;21.39;100.00;100585.69;4988588;28;20212;-81
2023/08/12 08:01:23;;;;;;;0.00;0.00;;;;;;;21.46;100.00;100586.97;4992319;28;20194;-80
2023/08/12 08:03:48;;;;;;;0.00;0.00;;;;;;;21.35;100.00;100572.97;4991108;28;20336;-79
2023/08/12 08:06:13;;;;;;;3.20;0.73;;;;;;;21.50;100.00;100585.81;4990542;28;20174;-79
2023/08/12 08:08:39;;;;;;;0.00;0.00;;;;;;;21.58;100.00;100584.72;4992225;28;20183;-80
2023/08/12 08:11:05;;;;;;;0.00;0.00;;;;;;;21.72;100.00;100586.84;4992373;28;20186;-80
2023/08/12 08:13:30;;;;;;;0.00;0.00;;;;;;;21.80;100.00;100587.69;4992037;28;20180;-81
2023/08/12 08:15:56;;;;;;;1.10;1.10;;;;;;;21.71;100.00;100584.44;5006717;28;20186;-80
2023/08/12 08:18:21;;;;;;;0.47;0.47;;;;;;;21.61;100.00;100575.59;5006542;28;20200;-79
2023/08/12 08:20:46;;;;;;;1.00;1.00;;;;;;;21.48;100.00;100574.28;4990630;28;20186;-81
2023/08/12 08:23:12;;;;;;;0.00;0.00;;;;;;;21.42;100.00;100578.59;4992170;28;20232;-79
2023/08/12 08:25:37;;;;;;;0.00;0.00;;;;;;;21.40;100.00;100569.81;4990431;28;20286;-79
2023/08/12 08:28:03;;;;;;;3.53;1.20;;;;;;;21.38;100.00;100567.44;4990690;28;20237;-79
2023/08/12 08:30:29;;;;;;;0.10;0.10;;;;;;;21.45;100.00;100575.06;4991942;28;20240;-79
2023/08/12 08:32:54;;;;;;;0.17;0.17;;;;;;;21.50;100.00;100574.69;4992182;28;20230;-81
2023/08/12 08:35:19;;;;;;;0.00;0.00;;;;;;;21.50;100.00;100565.56;4999863;28;20244;-82
2023/08/12 08:37:45;;;;;;;0.00;0.00;;;;;;;21.42;100.00;100569.47;4996616;28;20328;-81
2023/08/12 08:40:11;;;;;;;0.00;0.00;;;;;;;21.34;100.00;100566.59;4993245;28;20200;-80
2023/08/12 08:42:37;;;;;;;0.10;0.10;;;;;;;21.34;100.00;100561.03;4990998;28;20181;-79
2023/08/12 08:45:08;;;;;;;1.20;1.20;;;;;;;21.30;100.00;100549.09;4989432;28;20723;-80
2023/08/12 08:47:34;;;;;;;0.00;0.00;;;;;;;21.24;100.00;100553.34;4992196;28;20181;-81
2023/08/12 08:50:00;;;;;;;0.00;0.00;;;;;;;21.35;100.00;100568.19;4991889;28;20208;-79
2023/08/12 08:52:26;;;;;;;1.03;0.77;;;;;;;21.26;100.00;100551.03;4991683;28;20187;-79
2023/08/12 08:54:51;;;;;;;0.00;0.00;;;;;;;21.30;100.00;100568.56;4989707;28;20229;-79
2023/08/12 08:57:19;;;;;;;0.27;0.27;;;;;;;21.29;100.00;100572.50;4991447;28;20269;-80
2023/08/12 08:59:44;;;;;;;0.87;0.87;;;;;;;21.23;100.00;100565.66;4991592;28;20224;-82
2023/08/12 09:02:16;;;;;;;0.50;0.50;;;;;;;21.25;100.00;100566.09;4990537;28;20181;-79
2023/08/12 09:04:43;;;;;;;0.60;0.60;;;;;;;21.25;100.00;100559.75;4989808;28;20202;-79
2023/08/12 09:07:09;;;;;;;0.13;0.13;;;;;;;21.30;100.00;100549.09;4991548;28;20675;-81
2023/08/12 09:09:35;;;;;;;0.60;0.60;;;;;;;21.35;100.00;100553.50;4991720;28;20249;-79
2023/08/12 09:12:02;;;;;;;5.80;2.43;;;;;;;21.39;100.00;100560.69;4990768;28;20531;-81
2023/08/12 09:14:28;;;;;;;0.00;0.00;;;;;;;21.51;100.00;100556.84;4989718;28;20619;-80
2023/08/12 09:16:55;;;;;;;0.20;0.20;;;;;;;21.69;100.00;100559.78;4991668;28;20276;-79
2023/08/12 09:19:20;;;;;;;0.27;0.27;;;;;;;21.88;100.00;100561.53;4991675;28;20179;-79
2023/08/12 09:21:52;;;;;;;0.90;0.90;;;;;;;22.04;99.70;100547.34;4992039;28;20195;-79
2023/08/12 09:24:23;;;;;;;1.57;1.47;;;;;;;22.31;98.24;100551.53;4989807;28;20195;-81
2023/08/12 09:26:51;;;;;;;1.63;1.60;;;;;;;22.41;93.35;100527.72;4991655;28;20194;-79
2023/08/12 09:29:17;;;;;;;0.37;0.37;;;;;;;22.56;93.47;100538.53;4990377;28;20211;-79
2023/08/12 09:31:42;;;;;;;0.00;0.00;;;;;;;22.89;93.90;100547.88;4995323;28;20221;-79
2023/08/12 09:34:07;;;;;;;0.00;0.00;;;;;;;23.24;91.78;100533.22;4994857;28;20557;-79
2023/08/12 09:36:33;;;;;;;0.00;0.00;;;;;;;23.31;89.60;100515.72;5003385;28;20226;-79
2023/08/12 09:38:59;;;;;;;0.30;0.30;;;;;;;23.50;89.19;100508.97;4997601;28;20583;-79
2023/08/12 09:41:26;;;;;;;0.10;0.10;;;;;;;23.51;88.65;100491.03;4996036;28;20717;-81
2023/08/12 09:43:52;;;;;;;0.53;0.50;;;;;;;23.51;86.83;100489.03;4995360;28;20219;-79
2023/08/12 09:46:20;;;;;;;0.10;0.10;;;;;;;23.51;85.32;100477.09;5010813;28;20296;-79
2023/08/12 09:48:46;;;;;;;0.20;0.20;;;;;;;23.84;87.24;100495.44;4996358;28;20220;-80
2023/08/12 09:51:11;;;;;;;14.00;1.17;;;;;;;24.24;87.37;100494.16;4995904;28;20608;-79
2023/08/12 09:53:36;;;;;;;0.20;0.20;;;;;;;24.40;83.67;100471.38;4995715;28;20185;-79
2023/08/12 09:56:11;;;;;;;0.43;0.43;;;;;;;24.56;82.50;100477.31;4994165;28;20200;-79
2023/08/12 09:58:39;;;;;;;0.00;0.00;;;;;;;24.38;80.66;100463.41;4995688;28;20694;-82
2023/08/12 10:01:07;;;;;;;0.00;0.00;;;;;;;24.28;80.94;100453.03;4995961;28;20189;-79
2023/08/12 10:03:33;;;;;;;0.40;0.40;;;;;;;24.10;80.24;100450.31;4995966;28;20189;-79
2023/08/12 10:05:59;;;;;;;1.77;1.60;;;;;;;23.88;81.73;100452.38;4993451;28;20189;-79
2023/08/12 10:08:27;;;;;;;1.23;1.23;;;;;;;23.66;82.65;100454.41;4994313;28;20181;-79
2023/08/12 10:10:52;;;;;;;0.00;0.00;;;;;;;23.62;84.20;100459.19;4995090;28;20239;-79
2023/08/12 10:13:18;;;;;;;0.27;0.20;;;;;;;23.71;86.19;100478.28;4994652;28;20189;-79
2023/08/12 10:15:44;;;;;;;0.00;0.00;;;;;;;23.60;86.27;100469.16;4994400;28;20208;-79
2023/08/12 10:18:10;;;;;;;0.00;0.00;;;;;;;23.65;86.27;100471.53;4995509;28;20188;-79
2023/08/12 10:20:36;;;;;;;0.27;0.27;;;;;;;23.69;86.38;100467.53;4995473;28;20549;-79
2023/08/12 10:23:02;;;;;;;0.53;0.53;;;;;;;23.67;88.82;100478.31;4995219;28;20193;-80
2023/08/12 10:25:32;;;;;;;1.00;0.73;;;;;;;23.58;90.06;100480.72;4993097;28;20697;-79
2023/08/12 10:27:57;;;;;;;0.20;0.20;;;;;;;23.64;89.72;100483.91;4994811;28;20209;-79
2023/08/12 10:30:23;;;;;;;0.00;0.00;;;;;;;23.54;91.94;100482.66;4993486;28;20715;-81
2023/08/12 10:32:48;;;;;;;0.37;0.37;;;;;;;23.55;92.95;100492.63;4993793;28;20733;-80
2023/08/12 10:35:14;;;;;;;1.87;1.87;;;;;;;23.26;93.39;100488.22;4992634;28;20276;-79
2023/08/12 10:37:40;;;;;;;0.70;0.70;;;;;;;23.27;94.94;100489.81;4994552;28;20216;-81
2023/08/12 10:40:09;;;;;;;1.57;1.47;;;;;;;23.10;94.31;100494.16;4994564;28;20181;-79
2023/08/12 10:42:47;;;;;;;1.17;0.90;;;;;;;23.00;95.65;100487.41;4993802;28;20181;-80
2023/08/12 10:45:14;;;;;;;1.20;1.20;;;;;;;23.20;96.59;100487.03;4993461;28;20204;-80
2023/08/12 10:48:12;;;;;;;0.93;0.60;;;;;;;23.52;96.88;100487.84;4994769;28;20567;-80
2023/08/12 10:50:44;;;;;;;1.10;1.00;;;;;;;23.49;94.52;100485.06;4994636;28;20193;-79
2023/08/12 10:53:24;;;;;;;1.60;1.50;;;;;;;23.62;92.94;100477.91;4993144;28;20203;-79
2023/08/12 10:55:54;;;;;;;0.27;0.27;;;;;;;23.61;91.57;100465.97;4993893;28;20249;-79
2023/08/12 10:58:45;;;;;;;0.00;0.00;;;;;;;24.14;92.91;100470.63;4994235;28;20193;-79
2023/08/12 11:01:13;;;;;;;1.10;0.97;;;;;;;24.24;89.87;100452.28;4993196;28;20192;-80
2023/08/12 11:03:45;;;;;;;2.33;2.13;;;;;;;24.49;89.11;100453.00;4993732;28;20715;-80
2023/08/12 11:06:11;;;;;;;0.37;0.37;;;;;;;24.42;84.18;100441.06;4993298;28;20185;-78
2023/08/12 11:08:36;;;;;;;0.70;0.70;;;;;;;24.52;84.78;100432.63;4993626;28;20207;-79
2023/08/12 11:11:02;;;;;;;0.00;0.00;;;;;;;24.68;85.29;100432.16;4993702;28;20203;-79
2023/08/12 11:13:28;;;;;;;0.40;0.40;;;;;;;24.82;84.35;100432.06;4993199;28;20649;-79
2023/08/12 11:16:06;;;;;;;0.00;0.00;;;;;;;25.10;83.79;100435.91;4992785;28;20189;-79
2023/08/12 11:18:32;;;;;;;2.23;2.13;;;;;;;24.87;81.76;100414.84;4992034;28;20177;-79
2023/08/12 11:20:58;;;;;;;1.10;1.10;;;;;;;25.00;82.77;100431.16;4992165;28;20188;-80